Time;durP1;ratioP1;P1;durP2;ratioP2;P2;SDS_P1;SDS_P2;PMS_P1;PMS_P2;Temp;Humidity;BMP_temperature;BMP_pressure;BME280_temperature;BME280_humidity;BME280_pressure;Samples;Min_cycle;Max_cycle;Signal;HPM_P1;HPM_P2
2023/06/02 00:00:54;;;;;;;7.07;3.85;;;;;;;12.21;72.62;101778.16;5015733;28;20029;-72
2023/06/02 00:03:19;;;;;;;7.05;3.80;;;;;;;12.21;72.41;101785.94;5016623;28;20056;-73
2023/06/02 00:05:46;;;;;;;6.35;3.08;;;;;;;12.19;73.04;101786.09;5018003;28;20040;-72
2023/06/02 00:08:12;;;;;;;9.10;3.40;;;;;;;12.25;73.12;101785.50;5012135;28;20048;-73
2023/06/02 00:10:38;;;;;;;9.50;3.92;;;;;;;12.20;72.32;101777.31;5018361;28;20041;-72
2023/06/02 00:13:03;;;;;;;7.20;3.45;;;;;;;12.20;72.24;101779.09;4994554;28;20077;-73
2023/06/02 00:15:31;;;;;;;12.23;5.80;;;;;;;12.21;72.61;101771.16;5003884;28;20422;-72
2023/06/02 00:17:57;;;;;;;12.85;5.10;;;;;;;12.17;72.62;101772.41;5017348;28;20503;-73
2023/06/02 00:20:26;;;;;;;8.15;4.55;;;;;;;12.14;72.48;101775.28;5018533;28;20026;-72
2023/06/02 00:22:52;;;;;;;8.80;4.07;;;;;;;12.19;72.39;101772.28;5015394;28;20041;-73
2023/06/02 00:25:18;;;;;;;8.88;4.10;;;;;;;12.14;72.37;101780.47;5012681;28;21141;-73
2023/06/02 00:27:43;;;;;;;11.13;4.78;;;;;;;12.12;72.76;101776.41;5013412;28;20079;-73
2023/06/02 00:30:10;;;;;;;8.35;4.32;;;;;;;12.12;72.87;101773.78;5030406;28;20153;-73
2023/06/02 00:32:35;;;;;;;7.10;4.45;;;;;;;12.19;72.98;101774.88;5013170;28;20048;-72
2023/06/02 00:35:00;;;;;;;8.68;4.25;;;;;;;12.20;72.97;101769.50;4999727;28;20050;-73
2023/06/02 00:37:26;;;;;;;10.15;4.68;;;;;;;12.14;72.75;101775.28;4986567;28;20056;-72
2023/06/02 00:39:51;;;;;;;9.80;3.72;;;;;;;12.13;72.30;101778.03;4995665;28;20171;-73
2023/06/02 00:42:18;;;;;;;6.63;3.92;;;;;;;12.05;72.75;101773.53;4998919;28;20040;-72
2023/06/02 00:44:43;;;;;;;7.80;3.30;;;;;;;12.01;73.20;101773.00;4997378;28;20030;-72
2023/06/02 00:47:09;;;;;;;9.65;3.88;;;;;;;11.97;71.93;101776.03;4986680;28;20042;-73
2023/06/02 00:49:35;;;;;;;10.10;4.07;;;;;;;11.86;72.76;101771.78;4993490;28;20527;-72
2023/06/02 00:52:01;;;;;;;15.70;4.63;;;;;;;11.81;72.69;101772.22;4999620;28;20025;-73
2023/06/02 00:54:27;;;;;;;8.50;3.78;;;;;;;11.91;72.38;101777.41;4993998;28;20050;-73
2023/06/02 00:56:54;;;;;;;8.30;3.53;;;;;;;11.84;72.81;101777.13;4992122;28;20046;-73
2023/06/02 00:59:23;;;;;;;11.35;3.78;;;;;;;11.83;73.25;101783.28;4992853;28;20266;-72
2023/06/02 01:01:49;;;;;;;9.95;3.25;;;;;;;11.84;73.13;101779.72;4996444;28;20031;-73
2023/06/02 01:04:18;;;;;;;7.05;3.47;;;;;;;12.00;73.18;101778.34;5012555;28;20070;-72
2023/06/02 01:06:44;;;;;;;6.90;3.30;;;;;;;12.08;72.35;101774.06;4995756;28;20125;-72
2023/06/02 01:09:13;;;;;;;10.85;3.55;;;;;;;11.93;72.29;101774.69;5008052;28;20053;-72
2023/06/02 01:11:38;;;;;;;14.77;4.35;;;;;;;11.84;72.49;101773.69;5003436;28;20065;-72
2023/06/02 01:14:05;;;;;;;13.27;3.97;;;;;;;11.83;72.86;101772.88;5016241;28;20124;-72
2023/06/02 01:16:32;;;;;;;6.85;3.58;;;;;;;11.78;73.27;101772.47;5019549;28;20022;-72
2023/06/02 01:19:00;;;;;;;5.88;3.05;;;;;;;11.70;72.53;101772.38;5019294;28;20139;-72
2023/06/02 01:21:30;;;;;;;11.63;4.63;;;;;;;11.81;72.24;101767.00;5019813;28;20459;-72
2023/06/02 01:23:59;;;;;;;11.30;3.38;;;;;;;11.83;72.09;101767.69;5008575;28;20052;-73
2023/06/02 01:26:25;;;;;;;13.45;3.63;;;;;;;11.75;72.49;101783.16;4997726;28;20108;-72
2023/06/02 01:28:51;;;;;;;9.23;3.47;;;;;;;11.74;72.39;101776.31;5011625;28;20175;-72
2023/06/02 01:31:20;;;;;;;9.10;3.88;;;;;;;11.65;72.97;101772.78;4991386;28;20117;-73
2023/06/02 01:34:09;;;;;;;15.82;4.63;;;;;;;11.70;72.46;101777.56;4988989;28;20085;-72
2023/06/02 01:36:38;;;;;;;14.32;4.78;;;;;;;11.72;72.26;101777.44;4977194;28;20041;-72
2023/06/02 01:39:06;;;;;;;13.07;3.92;;;;;;;11.72;72.31;101780.84;4982310;28;20037;-73
2023/06/02 01:41:34;;;;;;;9.52;4.00;;;;;;;11.64;72.37;101780.69;4997727;28;20044;-72
2023/06/02 01:44:02;;;;;;;11.52;4.43;;;;;;;11.66;72.31;101774.44;5006301;28;20099;-72
2023/06/02 01:46:28;;;;;;;15.57;4.72;;;;;;;11.61;72.51;101776.63;5016728;28;20075;-72
2023/06/02 01:48:54;;;;;;;10.23;4.90;;;;;;;11.55;72.80;101777.19;5014609;28;20459;-72
2023/06/02 01:51:19;;;;;;;12.57;5.72;;;;;;;11.47;72.28;101777.03;5014605;28;20068;-72
2023/06/02 01:53:45;;;;;;;23.83;7.03;;;;;;;11.44;72.55;101774.72;5015686;28;20107;-72
2023/06/02 01:56:11;;;;;;;11.63;5.30;;;;;;;11.39;73.06;101780.31;5006493;28;20558;-72
2023/06/02 01:58:37;;;;;;;17.83;5.30;;;;;;;11.39;73.06;101775.13;5016566;28;20124;-72
2023/06/02 02:01:02;;;;;;;10.20;5.55;;;;;;;11.48;72.64;101776.91;5011270;28;20444;-72
2023/06/02 02:03:30;;;;;;;12.35;5.13;;;;;;;11.51;72.08;101773.22;5016454;28;20496;-72
2023/06/02 02:05:56;;;;;;;8.55;4.78;;;;;;;11.50;71.75;101771.56;5014143;28;20167;-72
2023/06/02 02:08:21;;;;;;;14.77;5.45;;;;;;;11.46;71.93;101771.03;5013024;28;20135;-72
2023/06/02 02:10:47;;;;;;;13.32;4.88;;;;;;;11.48;71.87;101773.50;5014833;28;20041;-72
2023/06/02 02:13:13;;;;;;;17.75;5.00;;;;;;;11.46;71.96;101780.59;5016232;28;20518;-73
2023/06/02 02:15:38;;;;;;;12.05;5.03;;;;;;;11.44;72.12;101777.31;5018312;28;20426;-72
2023/06/02 02:18:04;;;;;;;14.50;5.78;;;;;;;11.40;72.16;101779.38;5011910;28;20042;-72
2023/06/02 02:20:30;;;;;;;16.50;5.40;;;;;;;11.42;72.16;101781.84;4998439;28;20053;-72
2023/06/02 02:22:55;;;;;;;15.15;5.70;;;;;;;11.37;71.99;101778.81;5016763;28;20079;-72
2023/06/02 02:25:21;;;;;;;11.60;4.53;;;;;;;11.39;72.06;101780.31;5001302;23;20053;-69
2023/06/02 02:27:47;;;;;;;17.23;5.13;;;;;;;11.36;72.12;101782.38;4979413;28;20036;-69
2023/06/02 02:30:13;;;;;;;10.60;4.53;;;;;;;11.36;71.92;101780.59;4964478;28;20050;-69
2023/06/02 02:32:43;;;;;;;13.13;4.90;;;;;;;11.35;72.23;101783.34;4968609;28;20108;-69
2023/06/02 02:35:09;;;;;;;12.15;4.47;;;;;;;11.43;71.56;101789.50;4991536;28;20070;-69
2023/06/02 02:37:36;;;;;;;11.60;3.72;;;;;;;11.31;71.44;101787.97;4980982;28;20116;-69
2023/06/02 02:40:03;;;;;;;11.23;3.60;;;;;;;11.32;71.19;101789.63;4971005;28;20424;-69
2023/06/02 02:42:29;;;;;;;13.73;3.47;;;;;;;11.25;71.13;101791.94;4994727;28;20045;-69
2023/06/02 02:44:54;;;;;;;13.32;3.38;;;;;;;11.35;71.27;101793.72;4981270;28;20034;-68
2023/06/02 02:47:20;;;;;;;13.95;3.67;;;;;;;11.35;70.98;101798.91;4996575;28;20042;-69
2023/06/02 02:49:46;;;;;;;11.88;3.92;;;;;;;11.26;71.84;101795.34;4963028;28;20046;-69
2023/06/02 02:52:12;;;;;;;8.77;2.80;;;;;;;11.26;70.73;101798.78;4973149;28;20448;-68
2023/06/02 02:54:38;;;;;;;12.88;3.20;;;;;;;11.10;71.43;101803.69;4977320;28;21666;-68
2023/06/02 02:57:07;;;;;;;14.50;4.22;;;;;;;11.21;70.83;101800.16;4977095;28;20380;-68
2023/06/02 02:59:33;;;;;;;9.38;2.75;;;;;;;11.18;70.29;101797.81;4973284;28;20041;-69
2023/06/02 03:02:00;;;;;;;13.02;3.33;;;;;;;11.11;70.80;101802.72;4975865;28;20037;-69
2023/06/02 03:04:26;;;;;;;12.45;3.25;;;;;;;11.06;70.95;101805.72;4977869;28;20042;-69
2023/06/02 03:06:54;;;;;;;16.48;3.72;;;;;;;11.05;70.87;101796.28;4952519;28;20089;-68
2023/06/02 03:09:22;;;;;;;22.05;3.95;;;;;;;11.02;71.30;101800.91;4965853;28;20027;-69
2023/06/02 03:11:48;;;;;;;12.07;3.15;;;;;;;10.99;71.52;101799.44;4947621;28;20400;-69
2023/06/02 03:14:14;;;;;;;12.38;2.88;;;;;;;11.02;71.43;101796.56;4962675;28;20047;-69
2023/06/02 03:16:44;;;;;;;9.77;2.80;;;;;;;11.02;71.48;101800.91;4963906;28;20042;-69
2023/06/02 03:19:13;;;;;;;9.73;2.83;;;;;;;11.01;71.57;101802.69;4982482;28;20034;-68
2023/06/02 03:21:44;;;;;;;13.25;2.50;;;;;;;11.06;71.82;101803.13;4961133;28;20414;-68
2023/06/02 03:24:17;;;;;;;17.30;3.40;;;;;;;11.00;71.94;101798.50;4980336;28;20049;-68
2023/06/02 03:26:45;;;;;;;7.72;3.40;;;;;;;11.00;71.37;101808.03;4960918;28;20133;-68
2023/06/02 03:29:13;;;;;;;12.10;3.83;;;;;;;11.01;71.56;101802.69;4978769;28;20084;-69
2023/06/02 03:31:41;;;;;;;13.15;4.28;;;;;;;11.06;71.62;101797.13;4979383;28;20041;-69
2023/06/02 03:34:07;;;;;;;13.85;3.47;;;;;;;11.04;70.76;101804.22;4956756;28;20082;-69
2023/06/02 03:36:37;;;;;;;11.02;3.42;;;;;;;10.98;70.96;101808.19;4999052;28;20031;-69
2023/06/02 03:39:06;;;;;;;17.00;4.13;;;;;;;10.87;71.03;101809.09;4976610;28;20034;-68
2023/06/02 03:41:34;;;;;;;12.50;4.45;;;;;;;10.83;71.10;101806.91;4966955;28;20064;-69
2023/06/02 03:44:02;;;;;;;17.13;4.40;;;;;;;10.86;71.11;101806.63;4964648;28;20460;-69
2023/06/02 03:46:28;;;;;;;14.75;4.07;;;;;;;10.85;71.40;101810.19;4981640;28;20109;-69
2023/06/02 03:48:54;;;;;;;11.00;4.65;;;;;;;10.88;71.19;101810.72;4981490;28;20417;-69
2023/06/02 03:51:20;;;;;;;16.45;4.70;;;;;;;10.84;70.87;101813.75;4967201;28;20113;-69
2023/06/02 03:53:46;;;;;;;15.57;5.22;;;;;;;10.78;70.50;101814.28;4953584;28;20583;-68
2023/06/02 03:56:12;;;;;;;13.45;4.80;;;;;;;10.80;69.56;101810.59;4981874;28;20042;-69
2023/06/02 03:58:38;;;;;;;10.13;4.07;;;;;;;10.73;69.90;101817.25;4976200;28;20037;-69
2023/06/02 04:01:04;;;;;;;16.05;4.70;;;;;;;10.73;70.00;101814.66;4967387;28;20158;-69
2023/06/02 04:03:36;;;;;;;20.02;4.95;;;;;;;10.75;70.08;101814.53;4981963;28;20205;-69
2023/06/02 04:06:06;;;;;;;18.33;5.00;;;;;;;10.79;70.35;101821.91;4964597;28;20112;-68
2023/06/02 04:08:32;;;;;;;18.20;4.93;;;;;;;10.76;71.10;101821.38;4978903;28;20097;-69
2023/06/02 04:10:58;;;;;;;17.88;5.78;;;;;;;10.77;70.35;101820.41;4967918;28;20042;-69
2023/06/02 04:13:24;;;;;;;9.32;4.30;;;;;;;10.77;70.63;101818.63;4968477;28;20057;-69
2023/06/02 04:15:49;;;;;;;20.80;5.35;;;;;;;10.75;70.69;101819.72;4967210;28;20423;-69
2023/06/02 04:18:15;;;;;;;16.30;6.75;;;;;;;10.76;70.90;101813.59;4982404;28;20042;-69
2023/06/02 04:20:41;;;;;;;17.08;5.35;;;;;;;10.74;71.02;101829.28;4968577;28;20262;-68
2023/06/02 04:23:06;;;;;;;16.67;4.63;;;;;;;10.65;71.04;101820.50;4978140;28;20477;-69
2023/06/02 04:25:32;;;;;;;17.27;5.18;;;;;;;10.65;71.70;101832.66;4981811;28;20473;-68
2023/06/02 04:27:58;;;;;;;18.95;5.15;;;;;;;10.68;71.67;101833.22;4980930;28;20026;-69
2023/06/02 04:30:24;;;;;;;14.55;5.60;;;;;;;10.74;70.83;101831.03;4980561;28;20033;-69
2023/06/02 04:32:51;;;;;;;17.10;6.30;;;;;;;10.72;70.99;101831.19;4980082;28;20042;-69
2023/06/02 04:35:17;;;;;;;16.75;6.50;;;;;;;10.70;71.46;101831.31;4978997;28;20111;-69
2023/06/02 04:37:46;;;;;;;17.50;5.70;;;;;;;10.68;71.84;101829.78;4979237;28;20038;-69
2023/06/02 04:40:14;;;;;;;25.73;7.20;;;;;;;10.71;71.72;101827.75;4990113;28;20046;-69
2023/06/02 04:42:40;;;;;;;21.02;5.80;;;;;;;10.76;71.50;101842.94;4965726;28;20062;-68
2023/06/02 04:45:12;;;;;;;16.77;5.57;;;;;;;10.81;71.52;101837.34;4976310;28;20113;-68
2023/06/02 04:47:40;;;;;;;14.13;5.20;;;;;;;10.83;71.44;101830.25;4994669;28;20034;-69
2023/06/02 04:50:10;;;;;;;14.23;5.78;;;;;;;10.80;71.71;101835.72;4977505;28;20303;-69
2023/06/02 04:52:41;;;;;;;13.73;4.82;;;;;;;10.84;72.21;101831.91;4964305;28;20022;-68
2023/06/02 04:55:08;;;;;;;18.05;5.32;;;;;;;10.77;71.91;101830.78;4973166;28;20035;-68
2023/06/02 04:57:35;;;;;;;18.95;5.32;;;;;;;10.81;72.29;101829.56;4981460;28;20031;-68
2023/06/02 05:00:06;;;;;;;17.23;4.80;;;;;;;10.83;72.25;101823.31;4992638;28;20074;-68
2023/06/02 05:02:32;;;;;;;15.43;5.65;;;;;;;10.90;72.84;101824.41;4980114;28;20033;-68
2023/06/02 05:04:58;;;;;;;21.38;5.55;;;;;;;10.96;73.29;101827.41;4991467;28;20030;-68
2023/06/02 05:07:25;;;;;;;11.27;5.03;;;;;;;10.79;72.89;101824.50;4980812;28;20684;-68
2023/06/02 05:09:51;;;;;;;14.85;5.35;;;;;;;10.87;72.67;101826.47;4968591;28;20042;-68
2023/06/02 05:12:18;;;;;;;24.13;6.20;;;;;;;10.91;72.97;101827.84;4968377;28;20027;-68
2023/06/02 05:14:44;;;;;;;18.60;6.03;;;;;;;10.93;72.80;101828.50;4993251;28;20524;-68
2023/06/02 05:17:11;;;;;;;19.08;5.75;;;;;;;10.93;72.84;101825.09;4984034;28;20052;-68
2023/06/02 05:19:44;;;;;;;20.98;5.35;;;;;;;10.88;73.50;101830.69;4967968;28;20061;-68
2023/06/02 05:22:10;;;;;;;15.73;5.05;;;;;;;10.93;73.23;101827.69;4966396;28;20030;-69
2023/06/02 05:24:35;;;;;;;12.52;4.00;;;;;;;11.03;73.18;101824.16;4972271;28;20093;-69
2023/06/02 05:27:01;;;;;;;12.50;4.03;;;;;;;11.04;72.20;101827.59;4965099;28;20420;-69
2023/06/02 05:29:26;;;;;;;12.32;4.68;;;;;;;10.93;71.37;101830.31;4959657;28;20257;-69
2023/06/02 05:31:52;;;;;;;15.27;3.80;;;;;;;10.85;71.99;101836.13;5000075;28;20025;-69
2023/06/02 05:34:18;;;;;;;11.93;3.83;;;;;;;10.86;72.23;101835.19;4998982;28;20057;-69
2023/06/02 05:36:44;;;;;;;20.08;4.95;;;;;;;10.90;72.21;101833.97;4985354;28;20446;-69
2023/06/02 05:39:10;;;;;;;17.55;5.22;;;;;;;10.81;72.50;101826.97;4970137;28;20050;-69
2023/06/02 05:41:36;;;;;;;14.23;5.15;;;;;;;10.93;72.47;101835.50;4977891;28;20042;-68
2023/06/02 05:44:01;;;;;;;17.25;4.72;;;;;;;10.93;71.36;101840.69;4981783;28;20038;-69
2023/06/02 05:46:27;;;;;;;14.70;5.50;;;;;;;10.94;70.98;101835.34;4998675;28;20042;-68
2023/06/02 05:48:53;;;;;;;20.02;4.70;;;;;;;11.01;71.38;101836.44;4978308;28;20060;-69
2023/06/02 05:51:18;;;;;;;22.25;6.70;;;;;;;11.13;71.28;101846.72;4982351;28;20038;-68
2023/06/02 05:53:44;;;;;;;16.27;5.57;;;;;;;11.03;70.60;101836.31;4984294;28;20049;-69
2023/06/02 05:56:10;;;;;;;21.13;5.90;;;;;;;11.05;70.49;101845.59;4968099;28;20034;-68
2023/06/02 05:58:38;;;;;;;15.32;5.15;;;;;;;11.19;70.38;101853.97;4987750;28;20054;-69
2023/06/02 06:01:04;;;;;;;17.73;5.25;;;;;;;11.03;70.30;101842.31;5000214;28;20042;-68
2023/06/02 06:03:30;;;;;;;17.48;5.35;;;;;;;11.07;70.70;101843.69;4979602;28;20206;-69
2023/06/02 06:05:56;;;;;;;16.80;4.57;;;;;;;11.13;70.11;101844.94;4968556;28;20037;-69
2023/06/02 06:08:21;;;;;;;12.15;4.90;;;;;;;11.15;69.59;101842.19;4982412;28;20050;-69
2023/06/02 06:10:47;;;;;;;15.77;4.72;;;;;;;11.24;70.84;101842.22;4984786;28;20026;-69
2023/06/02 06:13:15;;;;;;;17.17;5.15;;;;;;;11.20;70.28;101845.22;4966960;28;20081;-69
2023/06/02 06:15:41;;;;;;;15.95;4.85;;;;;;;11.22;69.88;101845.91;4983182;28;20420;-69
2023/06/02 06:18:06;;;;;;;11.02;4.25;;;;;;;11.20;70.10;101850.41;4985408;28;20617;-69
2023/06/02 06:20:32;;;;;;;17.20;4.90;;;;;;;11.19;70.20;101853.97;4967077;28;20088;-69
2023/06/02 06:22:58;;;;;;;19.17;5.32;;;;;;;11.25;70.28;101845.66;4981946;28;20149;-69
2023/06/02 06:25:25;;;;;;;19.10;5.30;;;;;;;11.26;70.15;101852.47;4981428;28;20112;-69
2023/06/02 06:27:54;;;;;;;12.02;4.65;;;;;;;11.29;70.35;101847.03;4995900;28;20026;-69
2023/06/02 06:30:21;;;;;;;15.27;4.03;;;;;;;11.29;70.07;101847.81;4983199;28;20026;-69
2023/06/02 06:32:47;;;;;;;21.52;5.00;;;;;;;11.36;69.90;101842.94;4981450;28;20042;-69
2023/06/02 06:35:13;;;;;;;18.13;5.20;;;;;;;11.36;69.77;101842.94;4996038;28;20104;-69
2023/06/02 06:37:39;;;;;;;78.07;31.52;;;;;;;11.41;69.24;101848.50;4963889;28;20579;-69
2023/06/02 06:40:05;;;;;;;15.27;5.65;;;;;;;11.47;69.29;101842.81;4996400;28;20073;-69
2023/06/02 06:42:33;;;;;;;17.52;4.82;;;;;;;11.47;69.13;101860.13;4979085;28;20488;-69
2023/06/02 06:45:13;;;;;;;20.50;4.35;;;;;;;11.52;69.55;101844.16;4982758;28;20284;-69
2023/06/02 06:47:38;;;;;;;15.18;3.90;;;;;;;11.49;70.44;101859.06;4980628;28;20105;-69
2023/06/02 06:50:06;;;;;;;20.77;5.07;;;;;;;11.57;70.09;101853.19;4977606;28;20064;-69
2023/06/02 06:52:32;;;;;;;20.95;4.85;;;;;;;11.57;69.69;101855.78;4996058;28;20063;-69
2023/06/02 06:54:57;;;;;;;14.77;4.53;;;;;;;11.62;70.32;101860.56;4982174;28;20030;-69
2023/06/02 06:57:22;;;;;;;16.20;5.32;;;;;;;11.77;68.31;101858.38;4985796;28;20042;-69
2023/06/02 06:59:48;;;;;;;17.65;4.85;;;;;;;11.64;68.22;101864.69;4998877;28;20054;-69
2023/06/02 07:02:14;;;;;;;13.88;5.13;;;;;;;11.67;68.15;101853.19;4983120;28;20026;-69
2023/06/02 07:04:39;;;;;;;18.10;5.82;;;;;;;11.57;67.66;101873.16;4998077;28;20115;-69
2023/06/02 07:07:05;;;;;;;15.88;5.10;;;;;;;11.54;67.99;101865.63;4981466;28;20049;-69
2023/06/02 07:09:31;;;;;;;23.70;9.13;;;;;;;11.45;67.99;101867.25;4993277;28;20062;-69
2023/06/02 07:11:56;;;;;;;30.15;10.40;;;;;;;11.59;67.79;101866.03;4965172;28;20463;-69
2023/06/02 07:14:22;;;;;;;27.77;12.25;;;;;;;11.61;67.19;101864.94;4996260;28;20056;-69
2023/06/02 07:16:50;;;;;;;34.65;11.43;;;;;;;11.68;67.33;101865.22;4996021;28;20050;-69
2023/06/02 07:19:16;;;;;;;24.00;10.88;;;;;;;11.76;68.22;101862.75;4975690;28;20045;-69
2023/06/02 07:21:41;;;;;;;20.55;10.32;;;;;;;11.88;67.94;101868.59;4999022;28;20057;-69
2023/06/02 07:24:07;;;;;;;19.85;10.07;;;;;;;11.99;67.58;101863.28;4980948;28;20057;-69
2023/06/02 07:26:32;;;;;;;25.15;11.75;;;;;;;12.10;65.94;101870.13;4979614;28;20244;-69
2023/06/02 07:28:58;;;;;;;24.77;11.68;;;;;;;12.03;66.80;101864.66;4992114;28;20042;-69
2023/06/02 07:31:23;;;;;;;25.05;9.88;;;;;;;12.05;67.58;101862.75;4998398;28;20515;-69
2023/06/02 07:33:48;;;;;;;20.65;10.52;;;;;;;12.07;66.18;101870.38;4982489;28;20046;-69
2023/06/02 07:36:14;;;;;;;19.85;7.55;;;;;;;12.07;66.75;101865.19;4980480;28;20026;-69
2023/06/02 07:38:40;;;;;;;13.68;7.03;;;;;;;12.20;67.60;101860.50;4984437;28;20829;-69
2023/06/02 07:41:05;;;;;;;16.50;7.60;;;;;;;12.24;65.55;101866.25;4998074;28;20038;-69
2023/06/02 07:43:31;;;;;;;19.70;6.07;;;;;;;12.25;65.51;101867.91;4996460;28;20057;-69
2023/06/02 07:45:57;;;;;;;11.45;6.57;;;;;;;12.33;65.81;101860.19;4981221;28;20176;-69
2023/06/02 07:48:22;;;;;;;22.15;9.00;;;;;;;12.43;64.98;101855.81;4981256;28;20039;-69
2023/06/02 07:50:48;;;;;;;20.15;9.57;;;;;;;12.45;66.18;101853.88;4996502;28;20519;-69
2023/06/02 07:53:13;;;;;;;23.98;10.93;;;;;;;12.41;64.96;101857.75;4980423;28;20042;-69
2023/06/02 07:55:38;;;;;;;24.65;9.95;;;;;;;12.45;64.13;101859.09;4967176;28;20049;-69
2023/06/02 07:58:04;;;;;;;17.67;8.85;;;;;;;12.49;65.88;101861.38;4979567;28;20041;-69
2023/06/02 08:00:29;;;;;;;20.90;9.73;;;;;;;12.44;64.76;101860.03;4979561;28;20013;-69
2023/06/02 08:02:56;;;;;;;23.05;10.23;;;;;;;12.45;64.29;101861.69;4979876;28;20026;-69
2023/06/02 08:05:21;;;;;;;25.85;11.38;;;;;;;12.35;64.80;101865.28;4979754;28;20022;-69
2023/06/02 08:07:47;;;;;;;19.73;8.75;;;;;;;12.42;64.51;101861.16;4995200;28;20037;-69
2023/06/02 08:10:12;;;;;;;19.58;7.35;;;;;;;12.63;64.12;101864.34;4961182;28;20074;-69
2023/06/02 08:12:38;;;;;;;17.90;8.55;;;;;;;12.67;63.75;101864.88;4997011;28;20456;-69
2023/06/02 08:15:04;;;;;;;23.40;10.40;;;;;;;12.75;62.73;101870.19;4976468;28;20125;-69
2023/06/02 08:17:30;;;;;;;21.98;10.05;;;;;;;12.84;62.83;101873.69;4996803;28;20030;-69
2023/06/02 08:20:00;;;;;;;23.88;13.80;;;;;;;12.75;63.40;101871.97;5002197;28;20045;-69
2023/06/02 08:22:27;;;;;;;26.60;13.73;;;;;;;12.94;62.58;101877.09;4980260;28;20564;-69
2023/06/02 08:24:54;;;;;;;26.73;12.00;;;;;;;13.01;62.34;101867.72;4982045;28;20068;-67
2023/06/02 08:27:23;;;;;;;24.42;12.35;;;;;;;12.81;61.97;101869.63;5000755;28;20633;-68
2023/06/02 08:29:49;;;;;;;28.20;12.40;;;;;;;12.85;62.00;101859.75;4996932;28;20045;-67
2023/06/02 08:32:19;;;;;;;26.65;12.93;;;;;;;12.97;62.76;101874.19;4998336;28;20136;-68
2023/06/02 08:34:47;;;;;;;34.63;15.57;;;;;;;13.08;61.95;101869.75;4999123;28;20440;-68
2023/06/02 08:37:18;;;;;;;39.13;19.95;;;;;;;13.11;61.25;101869.44;5000799;28;20046;-67
2023/06/02 08:39:44;;;;;;;29.48;16.08;;;;;;;13.22;60.25;101867.47;4996444;28;20041;-68
2023/06/02 08:42:11;;;;;;;25.55;14.80;;;;;;;13.21;60.85;101862.41;4998967;28;20120;-68
2023/06/02 08:44:37;;;;;;;30.27;15.90;;;;;;;13.44;61.11;101866.22;4995481;28;20046;-68
2023/06/02 08:47:03;;;;;;;32.88;17.92;;;;;;;13.24;60.06;101862.94;4982819;28;20033;-67
2023/06/02 08:49:29;;;;;;;30.60;17.33;;;;;;;13.31;60.47;101867.56;4983903;28;20137;-68
2023/06/02 08:52:05;;;;;;;31.13;16.40;;;;;;;13.32;59.47;101864.00;4980957;28;20082;-68
2023/06/02 08:54:34;;;;;;;34.42;15.43;;;;;;;13.55;59.91;101865.19;4980968;28;20043;-68
2023/06/02 08:57:03;;;;;;;31.73;15.57;;;;;;;13.49;58.87;101865.78;4981228;28;20113;-68
2023/06/02 08:59:29;;;;;;;32.40;17.08;;;;;;;13.66;59.28;101868.56;4970850;28;20045;-68
2023/06/02 09:01:55;;;;;;;24.42;13.40;;;;;;;13.84;58.14;101871.94;4996289;28;20065;-68
2023/06/02 09:04:20;;;;;;;22.33;12.20;;;;;;;13.99;57.02;101867.81;4994249;28;20128;-68
2023/06/02 09:06:49;;;;;;;27.45;14.25;;;;;;;13.72;57.51;101878.38;4996832;28;20486;-68
2023/06/02 09:09:14;;;;;;;26.40;13.82;;;;;;;13.70;57.97;101869.88;4998692;28;20058;-68
2023/06/02 09:11:59;;;;;;;22.60;11.38;;;;;;;13.86;57.61;101866.56;4985377;28;20041;-68
2023/06/02 09:14:24;;;;;;;19.27;11.15;;;;;;;13.79;58.34;101864.56;4999060;28;20141;-68
2023/06/02 09:16:50;;;;;;;26.15;10.48;;;;;;;13.90;57.52;101863.53;4984408;28;20034;-69
2023/06/02 09:19:15;;;;;;;20.10;9.63;;;;;;;13.90;56.57;101865.28;4970371;28;20110;-68
2023/06/02 09:21:41;;;;;;;18.90;8.38;;;;;;;13.93;56.50;101863.19;4999342;28;20439;-68
2023/06/02 09:24:06;;;;;;;15.57;7.10;;;;;;;13.98;57.32;101863.56;4999238;28;20042;-68
2023/06/02 09:26:32;;;;;;;20.65;7.32;;;;;;;14.40;57.67;101854.19;4982881;28;20027;-68
2023/06/02 09:29:07;;;;;;;16.42;8.07;;;;;;;14.76;56.49;101861.88;4995268;28;20049;-68
2023/06/02 09:31:51;;;;;;;21.60;8.02;;;;;;;14.99;56.40;101851.66;4983377;28;20400;-68
2023/06/02 09:34:16;;;;;;;;;;;;;;;14.81;55.38;101846.56;4998029;28;20611;-68
2023/06/02 09:36:53;;;;;;;16.60;7.97;;;;;;;14.94;55.53;101851.34;4984907;28;19921;-68
2023/06/02 09:39:45;;;;;;;22.45;7.43;;;;;;;15.60;53.61;101844.41;4978810;28;20572;-68
2023/06/02 09:42:13;;;;;;;12.60;6.33;;;;;;;16.02;52.70;101842.59;4985225;28;20528;-68
2023/06/02 09:44:40;;;;;;;12.57;6.38;;;;;;;15.94;52.13;101840.81;4981557;28;20062;-68
2023/06/02 09:47:22;;;;;;;19.55;7.30;;;;;;;16.12;52.90;101844.06;4998636;28;20057;-68
2023/06/02 09:49:48;;;;;;;15.85;7.13;;;;;;;16.20;51.66;101842.38;4964717;28;20173;-68
2023/06/02 09:52:18;;;;;;;15.95;7.63;;;;;;;16.13;52.67;101845.66;4982560;28;20062;-68
2023/06/02 09:54:44;;;;;;;12.52;6.50;;;;;;;16.17;52.02;101854.00;4996159;28;20504;-68
2023/06/02 09:57:14;;;;;;;14.02;6.97;;;;;;;16.30;51.09;101851.69;4998029;28;20038;-68
2023/06/02 09:59:40;;;;;;;13.82;7.30;;;;;;;15.80;51.75;101844.09;4983502;28;20559;-68
2023/06/02 10:02:08;;;;;;;17.23;6.82;;;;;;;15.75;51.58;101852.44;4999607;28;20063;-68
2023/06/02 10:04:33;;;;;;;14.05;6.38;;;;;;;16.30;50.73;101832.56;4998477;28;20038;-68
2023/06/02 10:07:34;;;;;;;22.63;7.65;;;;;;;16.73;50.54;101836.47;4991200;28;20440;-68
2023/06/02 10:10:17;;;;;;;12.85;5.97;;;;;;;17.04;49.54;101837.47;4986660;28;20536;-68
2023/06/02 10:13:10;;;;;;;14.85;6.63;;;;;;;16.80;50.22;101830.53;4966534;28;20029;-68
2023/06/02 10:16:00;;;;;;;14.23;6.80;;;;;;;16.76;49.32;101829.25;4998049;28;20068;-68
2023/06/02 10:18:38;;;;;;;18.35;7.70;;;;;;;16.78;49.38;101832.50;4967784;28;20355;-69
2023/06/02 10:21:28;;;;;;;19.95;7.60;;;;;;;16.25;50.07;101838.28;4980475;28;20570;-68
2023/06/02 10:24:34;;;;;;;17.05;7.70;;;;;;;16.05;49.99;101827.38;4979932;28;20093;-69
2023/06/02 10:27:05;;;;;;;16.17;7.57;;;;;;;16.65;49.90;101822.56;4997047;28;20520;-68
2023/06/02 10:29:33;;;;;;;16.73;7.85;;;;;;;17.19;48.93;101819.19;4997783;28;20463;-68
2023/06/02 10:32:00;;;;;;;18.73;6.95;;;;;;;17.45;48.05;101814.38;4997430;28;20116;-68
2023/06/02 10:34:35;;;;;;;15.30;6.85;;;;;;;17.34;48.54;101811.38;4997909;28;20072;-69
2023/06/02 10:37:00;;;;;;;21.88;8.50;;;;;;;17.52;48.44;101814.50;4981148;28;20049;-70
2023/06/02 10:39:56;;;;;;;21.15;8.30;;;;;;;17.50;48.84;101816.50;4997689;28;20054;-68
2023/06/02 10:42:26;;;;;;;18.80;7.30;;;;;;;17.53;48.19;101810.88;4977738;28;20419;-68
2023/06/02 10:45:12;;;;;;;21.60;6.35;;;;;;;17.63;47.65;101808.00;4983191;28;20117;-68
2023/06/02 10:47:38;;;;;;;20.95;7.38;;;;;;;18.04;47.46;101797.94;5000883;28;20657;-68
2023/06/02 10:50:11;;;;;;;19.77;7.07;;;;;;;18.18;47.16;101796.31;4985441;28;20045;-69
2023/06/02 10:53:03;;;;;;;15.88;6.00;;;;;;;18.49;45.95;101788.19;4968380;28;20167;-68
2023/06/02 10:55:34;;;;;;;17.10;7.72;;;;;;;18.40;46.22;101796.38;4995898;28;20278;-69
2023/06/02 10:58:03;;;;;;;19.60;5.85;;;;;;;18.64;47.10;101801.31;4976260;28;20033;-69
2023/06/02 11:00:32;;;;;;;14.43;5.18;;;;;;;19.05;45.17;101792.06;4980908;28;20032;-69
2023/06/02 11:03:01;;;;;;;19.00;6.45;;;;;;;18.88;44.14;101785.44;5000996;28;20060;-69
2023/06/02 11:05:28;;;;;;;13.80;6.00;;;;;;;18.82;45.02;101800.13;4995487;28;20088;-69
2023/06/02 11:08:15;;;;;;;16.83;6.10;;;;;;;18.66;46.31;101786.16;4980943;28;20118;-69
2023/06/02 11:10:50;;;;;;;15.82;5.05;;;;;;;19.05;45.91;101784.16;4995941;28;20042;-69
2023/06/02 11:13:16;;;;;;;18.48;6.10;;;;;;;18.72;44.97;101774.09;4995637;28;20046;-69
2023/06/02 11:16:01;;;;;;;14.88;6.55;;;;;;;18.23;46.35;101782.63;4997410;28;20037;-69
2023/06/02 11:18:33;;;;;;;18.00;5.93;;;;;;;18.62;48.08;101779.66;4997491;28;20353;-69
2023/06/02 11:21:19;;;;;;;13.27;5.47;;;;;;;18.93;45.55;101777.78;4998178;28;20052;-68